createdAt,value
2023-04-18T00:01:03.786Z,100.00
2023-04-18T00:04:06.662Z,100.00
2023-04-18T00:07:09.105Z,100.00
2023-04-18T00:10:11.816Z,100.00
2023-04-18T00:13:14.173Z,100.00
2023-04-18T00:16:16.879Z,100.00
2023-04-18T00:19:20.140Z,100.00
2023-04-18T00:22:22.951Z,100.00
2023-04-18T00:25:25.352Z,100.00
2023-04-18T00:28:28.025Z,100.00
2023-04-18T00:31:30.811Z,100.00
2023-04-18T00:34:33.440Z,100.00
2023-04-18T00:37:35.903Z,100.00
2023-04-18T00:40:38.909Z,100.00
2023-04-18T00:43:41.384Z,100.00
2023-04-18T00:46:44.179Z,100.00
2023-04-18T00:49:47.957Z,100.00
2023-04-18T00:52:52.081Z,100.00
2023-04-18T00:55:55.021Z,100.00
2023-04-18T00:58:57.971Z,100.00
2023-04-18T01:02:02.264Z,100.00
2023-04-18T01:05:06.105Z,100.00
2023-04-18T01:08:08.511Z,100.00
2023-04-18T01:11:11.251Z,100.00
2023-04-18T01:14:15.092Z,100.00
2023-04-18T01:17:19.362Z,100.00
2023-04-18T01:20:21.832Z,100.00
2023-04-18T01:23:24.422Z,100.00
2023-04-18T01:26:27.309Z,100.00
2023-04-18T01:29:29.876Z,100.00
2023-04-18T01:32:32.263Z,100.00
2023-04-18T01:35:34.950Z,100.00
2023-04-18T01:38:37.693Z,100.00
2023-04-18T01:41:41.515Z,100.00
2023-04-18T01:44:45.123Z,100.00
2023-04-18T01:47:48.331Z,100.00
2023-04-18T01:50:50.966Z,100.00
2023-04-18T01:53:53.690Z,100.00
2023-04-18T01:56:55.950Z,100.00
2023-04-18T01:59:58.751Z,100.00
2023-04-18T02:03:01.167Z,100.00
2023-04-18T02:06:04.539Z,100.00
2023-04-18T02:09:07.032Z,100.00
2023-04-18T02:12:10.145Z,100.00
2023-04-18T02:15:12.462Z,100.00
2023-04-18T02:18:15.793Z,100.00
2023-04-18T02:21:18.173Z,100.00
2023-04-18T02:24:21.162Z,100.00
2023-04-18T02:27:23.410Z,100.00
2023-04-18T02:30:26.252Z,100.00
2023-04-18T02:33:29.277Z,100.00
2023-04-18T02:36:31.972Z,100.00
2023-04-18T02:39:34.586Z,100.00
2023-04-18T02:42:37.136Z,100.00
2023-04-18T02:45:39.488Z,100.00
2023-04-18T02:48:42.129Z,100.00
2023-04-18T02:51:45.226Z,100.00
2023-04-18T02:54:47.910Z,100.00
2023-04-18T02:57:50.529Z,100.00
2023-04-18T03:00:54.482Z,100.00
2023-04-18T03:03:58.331Z,100.00
2023-04-18T03:07:01.629Z,100.00
2023-04-18T03:10:05.412Z,100.00
2023-04-18T03:13:08.896Z,100.00
2023-04-18T03:16:11.505Z,100.00
2023-04-18T03:19:14.526Z,100.00
2023-04-18T03:22:20.066Z,100.00
2023-04-18T03:25:24.466Z,100.00
2023-04-18T03:28:27.053Z,100.00
2023-04-18T03:31:29.919Z,100.00
2023-04-18T03:34:32.322Z,100.00
2023-04-18T03:37:35.264Z,100.00
2023-04-18T03:40:38.335Z,100.00
2023-04-18T03:43:41.602Z,100.00
2023-04-18T03:46:44.284Z,100.00
2023-04-18T03:49:47.636Z,100.00
2023-04-18T03:52:50.296Z,100.00
2023-04-18T03:55:53.212Z,100.00
2023-04-18T03:58:56.153Z,100.00
2023-04-18T04:01:59.028Z,100.00
2023-04-18T04:05:02.746Z,100.00
2023-04-18T04:08:05.602Z,100.00
2023-04-18T04:11:09.485Z,100.00
2023-04-18T04:14:12.761Z,100.00
2023-04-18T04:17:16.280Z,100.00
2023-04-18T04:20:24.101Z,100.00
2023-04-18T04:23:28.266Z,100.00
2023-04-18T04:26:30.779Z,100.00
2023-04-18T04:29:35.309Z,100.00
2023-04-18T04:32:38.957Z,100.00
2023-04-18T04:35:41.807Z,100.00
2023-04-18T04:38:45.040Z,100.00
2023-04-18T04:41:48.910Z,100.00
2023-04-18T04:44:53.635Z,100.00
2023-04-18T04:47:57.049Z,100.00
2023-04-18T04:50:59.889Z,100.00
2023-04-18T04:54:02.815Z,100.00
2023-04-18T04:57:05.411Z,100.00
2023-04-18T05:00:08.649Z,100.00
2023-04-18T05:03:11.638Z,100.00
2023-04-18T05:06:20.531Z,100.00
2023-04-18T05:09:22.944Z,100.00
2023-04-18T05:12:26.863Z,100.00
2023-04-18T05:15:29.146Z,100.00
2023-04-18T05:18:34.365Z,100.00
2023-04-18T05:21:37.472Z,100.00
2023-04-18T05:24:40.733Z,100.00
2023-04-18T05:27:43.470Z,100.00
2023-04-18T05:30:46.112Z,100.00
2023-04-18T05:33:48.383Z,100.00
2023-04-18T05:36:51.117Z,100.00
2023-04-18T05:39:53.426Z,100.00
2023-04-18T05:42:56.099Z,100.00
2023-04-18T05:45:58.447Z,100.00
2023-04-18T05:49:01.514Z,100.00
2023-04-18T05:52:04.047Z,100.00
2023-04-18T05:55:06.906Z,100.00
2023-04-18T05:58:09.399Z,100.00
2023-04-18T06:01:14.330Z,100.00
2023-04-18T06:04:19.575Z,100.00
2023-04-18T06:07:25.212Z,100.00
2023-04-18T06:10:28.158Z,100.00
2023-04-18T06:13:31.111Z,100.00
2023-04-18T06:16:33.818Z,100.00
2023-04-18T06:19:36.269Z,100.00
2023-04-18T06:22:38.969Z,100.00
2023-04-18T06:25:41.605Z,100.00
2023-04-18T06:28:44.284Z,100.00
2023-04-18T06:31:48.363Z,100.00
2023-04-18T06:34:53.363Z,100.00
2023-04-18T06:37:56.104Z,100.00
2023-04-18T06:40:58.697Z,100.00
2023-04-18T06:44:04.129Z,100.00
2023-04-18T06:47:07.383Z,100.00
2023-04-18T06:50:09.833Z,100.00
2023-04-18T06:53:12.733Z,100.00
2023-04-18T06:56:15.093Z,100.00
2023-04-18T06:59:17.842Z,100.00
2023-04-18T07:02:20.410Z,100.00
2023-04-18T07:05:23.352Z,100.00
2023-04-18T07:08:25.742Z,100.00
2023-04-18T07:11:28.562Z,100.00
2023-04-18T07:14:32.849Z,100.00
2023-04-18T07:17:37.776Z,100.00
2023-04-18T07:20:40.357Z,100.00
2023-04-18T07:23:42.991Z,100.00
2023-04-18T07:26:45.374Z,100.00
2023-04-18T07:29:48.558Z,100.00
2023-04-18T07:32:50.904Z,100.00
2023-04-18T07:35:54.002Z,100.00
2023-04-18T07:38:56.393Z,100.00
2023-04-18T07:41:59.486Z,100.00
2023-04-18T07:45:01.902Z,100.00
2023-04-18T07:48:05.161Z,100.00
2023-04-18T07:51:07.488Z,100.00
2023-04-18T07:54:11.239Z,100.00
2023-04-18T07:57:18.717Z,100.00
2023-04-18T08:00:21.514Z,100.00
2023-04-18T08:03:24.887Z,100.00
2023-04-18T08:06:28.191Z,100.00
2023-04-18T08:09:30.817Z,100.00
2023-04-18T08:12:33.543Z,100.00
2023-04-18T08:15:36.115Z,100.00
2023-04-18T08:18:38.537Z,100.00
2023-04-18T08:21:41.135Z,100.00
2023-04-18T08:25:01.135Z,100.00
2023-04-18T08:28:06.276Z,100.00
2023-04-18T08:31:11.859Z,96.37
2023-04-18T08:34:14.802Z,80.46
2023-04-18T08:37:17.053Z,78.10
2023-04-18T08:40:19.883Z,67.55
2023-04-18T08:43:22.210Z,64.25
2023-04-18T08:46:24.856Z,56.91
2023-04-18T08:49:28.349Z,61.96
2023-04-18T08:52:32.010Z,68.24
2023-04-18T08:55:34.467Z,72.42
2023-04-18T08:58:37.504Z,75.98
2023-04-18T09:01:56.494Z,74.38
2023-04-18T09:04:59.628Z,77.39
2023-04-18T09:08:21.456Z,78.66
2023-04-18T09:11:28.993Z,74.95
2023-04-18T09:14:32.716Z,74.72
2023-04-18T09:17:43.650Z,72.29
2023-04-18T09:20:47.636Z,68.93
2023-04-18T09:23:50.421Z,69.02
2023-04-18T09:26:56.920Z,59.39
2023-04-18T09:30:00.807Z,67.79
2023-04-18T09:33:06.685Z,71.83
2023-04-18T09:36:17.146Z,73.57
2023-04-18T09:39:27.055Z,74.95
2023-04-18T09:42:35.854Z,76.12
2023-04-18T09:45:38.770Z,66.12
2023-04-18T09:48:41.844Z,63.17
2023-04-18T09:51:44.798Z,63.50
2023-04-18T09:54:48.320Z,63.59
2023-04-18T09:57:52.649Z,61.53
2023-04-18T10:00:56.454Z,60.91
2023-04-18T10:04:01.539Z,62.45
2023-04-18T10:07:04.834Z,62.41
2023-04-18T10:10:07.771Z,64.51
2023-04-18T10:13:11.942Z,59.57
2023-04-18T10:16:14.734Z,57.67
2023-04-18T10:19:20.983Z,56.00
2023-04-18T10:22:27.390Z,55.63
2023-04-18T10:25:39.400Z,58.96
2023-04-18T10:28:53.466Z,59.45
2023-04-18T10:32:07.007Z,58.28
2023-04-18T10:35:10.552Z,55.95
2023-04-18T10:38:22.566Z,55.85
2023-04-18T10:41:28.477Z,54.43
2023-04-18T10:44:30.913Z,50.53
2023-04-18T10:47:33.737Z,49.79
2023-04-18T10:50:56.223Z,47.97
2023-04-18T10:54:00.993Z,48.25
2023-04-18T10:57:04.171Z,48.89
2023-04-18T11:00:13.865Z,51.50
2023-04-18T11:03:16.388Z,50.40
2023-04-18T11:06:19.152Z,53.09
2023-04-18T11:09:22.728Z,52.31
2023-04-18T11:12:28.916Z,54.09
2023-04-18T11:15:31.362Z,52.19
2023-04-18T11:18:41.417Z,47.72
2023-04-18T11:21:44.065Z,47.33
2023-04-18T11:24:47.115Z,47.92
2023-04-18T11:27:51.698Z,48.10
2023-04-18T11:30:57.369Z,50.13
2023-04-18T11:34:01.970Z,51.45
2023-04-18T11:37:08.398Z,50.93
2023-04-18T11:40:11.684Z,51.87
2023-04-18T11:43:20.051Z,52.24
2023-04-18T11:46:26.989Z,52.34
2023-04-18T11:49:32.125Z,53.71
2023-04-18T11:52:35.518Z,55.10
2023-04-18T11:55:38.182Z,55.67
2023-04-18T11:58:40.746Z,56.51
2023-04-18T12:01:43.790Z,56.36
2023-04-18T12:04:50.257Z,54.79
2023-04-18T12:07:53.122Z,52.57
2023-04-18T12:10:55.964Z,48.29
2023-04-18T12:13:59.476Z,48.24
2023-04-18T12:17:03.466Z,46.94
2023-04-18T12:20:09.620Z,46.42
2023-04-18T12:23:31.243Z,43.83
2023-04-18T12:26:33.689Z,43.56
2023-04-18T12:29:36.308Z,45.28
2023-04-18T12:32:39.189Z,47.93
2023-04-18T12:35:42.504Z,48.42
2023-04-18T12:38:45.818Z,50.89
2023-04-18T12:41:49.830Z,50.81
2023-04-18T12:44:52.604Z,51.57
2023-04-18T12:47:55.193Z,45.81
2023-04-18T12:50:57.660Z,44.79
2023-04-18T12:54:00.333Z,43.68
2023-04-18T12:57:03.297Z,42.79
2023-04-18T13:00:13.015Z,39.10
2023-04-18T13:03:15.586Z,34.57
2023-04-18T13:06:18.298Z,31.70
2023-04-18T13:09:20.663Z,30.35
2023-04-18T13:12:23.560Z,28.85
2023-04-18T13:15:27.460Z,26.85
2023-04-18T13:18:30.234Z,30.36
2023-04-18T13:21:32.456Z,26.99
2023-04-18T13:24:37.089Z,23.44
2023-04-18T13:27:41.963Z,23.47
2023-04-18T13:30:44.838Z,22.39
2023-04-18T13:33:47.190Z,22.64
2023-04-18T13:36:49.759Z,25.53
2023-04-18T13:39:52.430Z,26.79
2023-04-18T13:42:55.101Z,25.40
2023-04-18T13:45:57.491Z,24.54
2023-04-18T13:49:00.053Z,26.08
2023-04-18T13:52:02.868Z,23.32
2023-04-18T13:55:05.920Z,23.38
2023-04-18T13:58:09.757Z,22.62
2023-04-18T14:01:17.064Z,22.63
2023-04-18T14:04:23.573Z,22.71
2023-04-18T14:07:26.100Z,23.88
2023-04-18T14:10:28.914Z,27.93
2023-04-18T14:13:32.135Z,26.08
2023-04-18T14:16:34.848Z,26.00
2023-04-18T14:22:39.653Z,28.94
2023-04-18T14:25:42.015Z,29.12
2023-04-18T14:28:45.949Z,26.83
2023-04-18T14:31:48.575Z,27.38
2023-04-18T14:34:52.746Z,27.74
2023-04-18T14:37:55.285Z,29.02
2023-04-18T14:40:58.541Z,31.50
2023-04-18T14:44:01.227Z,32.64
2023-04-18T14:47:04.139Z,31.72
2023-04-18T14:50:07.545Z,33.17
2023-04-18T14:53:10.919Z,32.62
2023-04-18T14:56:14.810Z,32.38
2023-04-18T14:59:18.746Z,32.45
2023-04-18T15:02:21.678Z,34.08
2023-04-18T15:05:24.455Z,34.44
2023-04-18T15:08:27.063Z,34.61
2023-04-18T15:11:29.862Z,34.55
2023-04-18T15:14:33.015Z,36.12
2023-04-18T15:17:35.954Z,35.66
2023-04-18T15:20:39.559Z,36.98
2023-04-18T15:23:42.361Z,36.38
2023-04-18T15:26:45.354Z,35.77
2023-04-18T15:29:48.084Z,35.79
2023-04-18T15:32:50.510Z,36.87
2023-04-18T15:35:54.925Z,36.23
2023-04-18T15:38:57.314Z,36.77
2023-04-18T15:41:59.943Z,37.57
2023-04-18T15:45:04.125Z,37.32
2023-04-18T15:48:06.909Z,37.50
2023-04-18T15:51:09.189Z,37.94
2023-04-18T15:54:11.918Z,38.51
2023-04-18T15:57:14.336Z,38.54
2023-04-18T16:00:20.137Z,38.61
2023-04-18T16:03:23.841Z,38.14
2023-04-18T16:06:27.382Z,38.76
2023-04-18T16:09:30.010Z,39.63
2023-04-18T16:12:32.437Z,39.68
2023-04-18T16:15:35.755Z,38.79
2023-04-18T16:18:39.152Z,40.26
2023-04-18T16:21:42.368Z,39.81
2023-04-18T16:24:44.650Z,40.30
2023-04-18T16:27:47.271Z,40.89
2023-04-18T16:30:49.919Z,40.33
2023-04-18T16:33:52.971Z,41.41
2023-04-18T16:36:55.711Z,43.22
2023-04-18T16:40:07.183Z,41.58
2023-04-18T16:43:09.554Z,41.06
2023-04-18T16:46:13.911Z,41.30
2023-04-18T16:49:16.455Z,41.79
2023-04-18T16:52:19.855Z,41.88
2023-04-18T16:55:22.166Z,41.44
2023-04-18T16:58:24.863Z,41.33
2023-04-18T17:01:27.105Z,42.27
2023-04-18T17:04:29.941Z,41.17
2023-04-18T17:07:32.293Z,42.36
2023-04-18T17:10:34.894Z,43.14
2023-04-18T17:13:37.174Z,43.34
2023-04-18T17:16:41.040Z,43.31
2023-04-18T17:19:43.546Z,43.39
2023-04-18T17:22:46.134Z,44.17
2023-04-18T17:25:48.892Z,45.13
2023-04-18T17:28:51.486Z,44.94
2023-04-18T17:31:53.992Z,44.95
2023-04-18T17:34:56.765Z,45.25
2023-04-18T17:37:59.090Z,45.96
2023-04-18T17:41:02.523Z,45.90
2023-04-18T17:44:05.716Z,46.25
2023-04-18T17:47:08.270Z,46.93
2023-04-18T17:50:10.932Z,47.21
2023-04-18T17:53:13.781Z,47.32
2023-04-18T17:56:16.595Z,47.95
2023-04-18T17:59:19.409Z,47.88
2023-04-18T18:02:23.588Z,47.98
2023-04-18T18:05:26.289Z,48.47
2023-04-18T18:08:29.600Z,48.70
2023-04-18T18:11:32.086Z,49.26
2023-04-18T18:14:34.318Z,49.71
2023-04-18T18:17:37.112Z,50.60
2023-04-18T18:20:41.899Z,50.40
2023-04-18T18:23:44.395Z,50.70
2023-04-18T18:26:46.677Z,50.94
2023-04-18T18:29:50.386Z,50.58
2023-04-18T18:32:53.535Z,50.99
2023-04-18T18:35:58.541Z,51.89
2023-04-18T18:39:01.225Z,50.85
2023-04-18T18:42:03.940Z,49.77
2023-04-18T18:45:07.470Z,50.71
2023-04-18T18:48:10.430Z,51.23
2023-04-18T18:51:12.823Z,50.96
2023-04-18T18:54:15.389Z,51.69
2023-04-18T18:57:17.701Z,51.18
2023-04-18T19:00:20.527Z,50.53
2023-04-18T19:03:23.459Z,52.13
2023-04-18T19:06:26.613Z,52.01
2023-04-18T19:09:29.298Z,51.57
2023-04-18T19:12:32.066Z,50.86
2023-04-18T19:15:34.438Z,50.48
2023-04-18T19:18:37.294Z,50.34
2023-04-18T19:21:42.763Z,50.58
2023-04-18T19:24:45.777Z,51.51
2023-04-18T19:27:48.102Z,51.57
2023-04-18T19:30:50.894Z,51.02
2023-04-18T19:33:53.231Z,50.81
2023-04-18T19:36:55.768Z,50.65
2023-04-18T19:39:58.041Z,51.21
2023-04-18T19:43:00.818Z,51.03
2023-04-18T19:46:03.269Z,51.74
2023-04-18T19:49:05.944Z,51.17
2023-04-18T19:52:08.151Z,51.31
2023-04-18T19:55:10.844Z,51.81
2023-04-18T19:58:32.711Z,51.78
2023-04-18T20:01:35.948Z,51.53
2023-04-18T20:04:39.693Z,51.14
2023-04-18T20:07:42.688Z,51.56
2023-04-18T20:10:45.252Z,51.02
2023-04-18T20:13:47.684Z,51.63
2023-04-18T20:16:50.215Z,50.78
2023-04-18T20:19:52.757Z,51.59
2023-04-18T20:22:55.342Z,51.67
2023-04-18T20:25:57.632Z,51.45
2023-04-18T20:29:00.358Z,50.96
2023-04-18T20:32:02.660Z,51.12
2023-04-18T20:35:05.626Z,50.58
2023-04-18T20:38:09.837Z,50.31
2023-04-18T20:41:18.258Z,51.07
2023-04-18T20:44:21.732Z,51.51
2023-04-18T20:47:24.414Z,51.32
2023-04-18T20:50:27.477Z,51.93
2023-04-18T20:53:30.397Z,52.39
2023-04-18T20:56:33.775Z,52.09
2023-04-18T20:59:36.385Z,52.78
2023-04-18T21:02:38.950Z,53.36
2023-04-18T21:05:42.698Z,53.54
2023-04-18T21:08:44.942Z,53.23
2023-04-18T21:11:48.208Z,53.98
2023-04-18T21:14:50.679Z,53.27
2023-04-18T21:17:53.412Z,53.30
2023-04-18T21:20:55.654Z,54.50
2023-04-18T21:23:58.340Z,54.47
2023-04-18T21:27:00.600Z,54.09
2023-04-18T21:30:05.848Z,54.56
2023-04-18T21:33:08.140Z,54.66
2023-04-18T21:36:10.679Z,54.53
2023-04-18T21:39:13.004Z,54.63
2023-04-18T21:42:15.706Z,54.81
2023-04-18T21:45:18.251Z,55.35
2023-04-18T21:48:21.719Z,55.37
2023-04-18T21:51:24.045Z,56.02
2023-04-18T21:54:27.073Z,55.73
2023-04-18T21:57:29.405Z,56.70
2023-04-18T22:00:32.010Z,56.36
2023-04-18T22:03:34.860Z,56.49
2023-04-18T22:06:37.394Z,56.71
2023-04-18T22:09:40.093Z,56.94
2023-04-18T22:12:43.888Z,57.56
2023-04-18T22:15:46.543Z,57.08
2023-04-18T22:18:51.911Z,57.93
2023-04-18T22:21:54.502Z,58.26
2023-04-18T22:24:56.877Z,58.32
2023-04-18T22:27:59.573Z,59.13
2023-04-18T22:31:02.007Z,58.83
2023-04-18T22:34:04.846Z,59.05
2023-04-18T22:37:07.105Z,59.00
2023-04-18T22:40:09.909Z,58.63
2023-04-18T22:43:13.651Z,59.40
2023-04-18T22:46:16.290Z,59.46
2023-04-18T22:49:18.594Z,60.81
2023-04-18T22:52:24.761Z,63.61
2023-04-18T22:55:27.155Z,59.86
2023-04-18T22:58:31.335Z,60.64
2023-04-18T23:01:33.710Z,59.05
2023-04-18T23:04:36.599Z,59.14
2023-04-18T23:07:38.912Z,58.92
2023-04-18T23:10:41.506Z,59.20
2023-04-18T23:13:43.730Z,59.91
2023-04-18T23:16:46.297Z,58.02
2023-04-18T23:19:48.691Z,57.55
2023-04-18T23:22:53.742Z,56.96
2023-04-18T23:25:56.096Z,57.02
2023-04-18T23:28:59.009Z,58.01
2023-04-18T23:32:01.331Z,57.46
2023-04-18T23:35:04.976Z,57.55
2023-04-18T23:38:07.246Z,56.40
2023-04-18T23:41:09.844Z,56.76
2023-04-18T23:44:12.655Z,56.36
2023-04-18T23:47:15.344Z,55.85
2023-04-18T23:50:17.648Z,56.11
2023-04-18T23:53:20.895Z,56.01
2023-04-18T23:56:23.310Z,56.66
2023-04-18T23:59:25.985Z,56.31
